createdAt,value
2022-10-17T00:04:41.108Z,37.67
2022-10-17T00:09:44.744Z,47.93
2022-10-17T00:14:49.736Z,38.30
2022-10-17T00:19:53.174Z,41.33
2022-10-17T00:24:56.676Z,41.27
2022-10-17T00:30:02.540Z,38.70
2022-10-17T00:35:16.608Z,46.53
2022-10-17T00:40:20.903Z,39.07
2022-10-17T00:45:29.596Z,40.47
2022-10-17T00:50:33.524Z,35.77
2022-10-17T00:55:39.364Z,34.77
2022-10-17T01:06:28.444Z,30.40
2022-10-17T01:11:41.024Z,35.73
2022-10-17T01:16:52.230Z,37.73
2022-10-17T01:21:56.940Z,40.07
2022-10-17T01:27:19.675Z,33.40
2022-10-17T01:32:29.379Z,39.20
2022-10-17T01:37:35.331Z,31.70
2022-10-17T01:42:43.507Z,40.30
2022-10-17T01:47:51.039Z,42.77
2022-10-17T01:52:57.170Z,42.07
2022-10-17T01:58:04.095Z,38.67
2022-10-17T02:03:13.795Z,36.57
2022-10-17T02:08:27.119Z,33.37
2022-10-17T02:13:39.268Z,35.67
2022-10-17T02:18:59.791Z,38.57
2022-10-17T02:24:07.432Z,38.80
2022-10-17T02:29:16.710Z,32.37
2022-10-17T02:34:26.402Z,36.00
2022-10-17T02:39:30.446Z,36.43
2022-10-17T02:44:34.670Z,32.80
2022-10-17T02:49:42.013Z,40.43
2022-10-17T02:54:49.582Z,39.70
2022-10-17T02:59:53.452Z,33.17
2022-10-17T03:04:59.138Z,39.17
2022-10-17T03:10:03.482Z,40.63
2022-10-17T03:15:09.118Z,40.70
2022-10-17T03:20:15.698Z,49.47
2022-10-17T03:25:20.549Z,33.37
2022-10-17T03:30:26.402Z,39.70
2022-10-17T03:35:32.617Z,45.07
2022-10-17T03:40:37.415Z,38.90
2022-10-17T03:45:41.958Z,39.73
2022-10-17T03:50:47.423Z,35.90
2022-10-17T03:55:51.454Z,41.67
2022-10-17T04:00:55.886Z,51.13
2022-10-17T04:06:02.163Z,43.23
2022-10-17T04:11:09.297Z,42.73
2022-10-17T04:16:14.865Z,44.80
2022-10-17T04:21:29.916Z,39.93
2022-10-17T04:26:38.089Z,41.40
2022-10-17T04:31:42.254Z,38.53
2022-10-17T04:36:57.233Z,31.53
2022-10-17T04:42:02.885Z,37.77
2022-10-17T04:47:09.924Z,34.70
2022-10-17T04:52:17.607Z,40.33
2022-10-17T04:57:25.261Z,42.73
2022-10-17T05:02:38.196Z,38.63
2022-10-17T05:07:44.156Z,39.40
2022-10-17T05:12:51.629Z,35.67
2022-10-17T05:24:19.752Z,29.13
2022-10-17T05:29:36.862Z,31.87
2022-10-17T05:35:08.499Z,31.90
2022-10-17T05:40:42.719Z,26.57
2022-10-17T05:45:48.481Z,29.10
2022-10-17T05:50:59.956Z,32.07
2022-10-17T05:56:08.116Z,32.87
2022-10-17T06:06:51.524Z,32.97
2022-10-17T06:17:40.735Z,38.13
2022-10-17T06:22:44.399Z,35.80
2022-10-17T06:33:03.488Z,38.87
2022-10-17T06:38:07.427Z,28.20
2022-10-17T06:43:13.815Z,27.13
2022-10-17T06:48:45.340Z,24.13
2022-10-17T06:53:56.602Z,27.97
2022-10-17T06:59:10.459Z,23.00
2022-10-17T07:04:17.463Z,20.97
2022-10-17T07:09:21.188Z,25.70
2022-10-17T07:14:31.939Z,22.27
2022-10-17T07:19:37.363Z,20.57
2022-10-17T07:24:41.045Z,16.43
2022-10-17T07:29:52.190Z,28.77
2022-10-17T07:35:16.317Z,18.17
2022-10-17T07:40:20.061Z,22.73
2022-10-17T07:45:27.776Z,15.93
2022-10-17T07:50:33.259Z,18.27
2022-10-17T07:55:39.009Z,19.90
2022-10-17T08:00:43.062Z,16.85
2022-10-17T08:05:49.607Z,19.13
2022-10-17T08:10:54.369Z,22.05
2022-10-17T08:16:01.238Z,21.60
2022-10-17T08:21:08.638Z,17.02
2022-10-17T08:26:17.506Z,13.02
2022-10-17T08:31:47.871Z,20.83
2022-10-17T08:36:54.428Z,17.60
2022-10-17T08:42:10.459Z,20.85
2022-10-17T08:53:10.760Z,14.18
2022-10-17T08:58:16.009Z,17.85
2022-10-17T09:03:32.949Z,23.67
2022-10-17T09:08:46.284Z,16.55
2022-10-17T09:13:59.056Z,23.65
2022-10-17T09:19:10.440Z,18.10
2022-10-17T09:24:19.120Z,19.25
2022-10-17T09:29:29.606Z,16.98
2022-10-17T09:35:32.449Z,15.50
2022-10-17T09:40:38.657Z,14.70
2022-10-17T09:45:50.228Z,14.07
2022-10-17T09:51:25.680Z,16.98
2022-10-17T10:04:20.295Z,14.27
2022-10-17T10:09:26.176Z,14.65
2022-10-17T10:14:34.516Z,15.20
2022-10-17T10:19:41.165Z,12.05
2022-10-17T10:24:45.076Z,13.90
2022-10-17T10:29:51.547Z,18.85
2022-10-17T10:34:59.247Z,15.23
2022-10-17T10:40:04.765Z,19.83
2022-10-17T10:45:35.972Z,12.48
2022-10-17T10:50:46.807Z,14.13
2022-10-17T10:55:52.784Z,14.35
2022-10-17T11:00:58.482Z,16.33
2022-10-17T11:06:07.812Z,14.77
2022-10-17T11:11:18.352Z,10.57
2022-10-17T11:16:31.048Z,15.27
2022-10-17T11:21:57.088Z,13.77
2022-10-17T11:27:02.548Z,16.77
2022-10-17T11:43:39.729Z,10.70
2022-10-17T11:48:50.148Z,9.38
2022-10-17T11:59:35.167Z,12.02
2022-10-17T12:10:35.618Z,11.45
2022-10-17T12:15:44.670Z,14.82
2022-10-17T12:20:57.298Z,13.13
2022-10-17T12:26:05.282Z,12.25
2022-10-17T12:31:13.695Z,15.20
2022-10-17T12:36:38.265Z,13.25
2022-10-17T12:41:55.476Z,16.77
2022-10-17T12:53:04.830Z,9.55
2022-10-17T12:58:14.831Z,16.33
2022-10-17T13:03:19.758Z,13.07
2022-10-17T13:08:26.816Z,10.43
2022-10-17T13:20:00.402Z,13.73
2022-10-17T13:40:49.066Z,34.85
2022-10-17T13:52:42.150Z,17.80
2022-10-17T13:57:45.647Z,22.13
2022-10-17T14:02:49.554Z,47.47
2022-10-17T14:08:11.422Z,16.85
2022-10-17T14:13:23.789Z,20.55
2022-10-17T14:18:34.834Z,30.17
2022-10-17T14:23:41.053Z,38.10
2022-10-17T14:28:46.297Z,59.58
2022-10-17T14:33:51.112Z,23.83
2022-10-17T14:38:56.212Z,29.75
2022-10-17T14:44:01.080Z,18.23
2022-10-17T14:49:07.532Z,13.13
2022-10-17T14:54:21.837Z,11.65
2022-10-17T14:59:52.053Z,10.02
2022-10-17T15:04:49.292Z,10.80
2022-10-17T15:09:54.998Z,14.90
2022-10-17T15:14:58.388Z,18.02
2022-10-17T15:20:01.739Z,24.00
2022-10-17T15:25:07.691Z,16.10
2022-10-17T15:30:21.631Z,15.13
2022-10-17T15:35:25.932Z,25.50
2022-10-17T15:40:31.115Z,24.00
2022-10-17T15:45:35.939Z,20.05
2022-10-17T15:50:39.381Z,22.17
2022-10-17T15:55:44.091Z,27.10
2022-10-17T16:00:47.734Z,48.33
2022-10-17T16:05:51.103Z,45.70
2022-10-17T16:10:55.973Z,70.63
2022-10-17T16:15:59.335Z,55.83
2022-10-17T16:21:02.648Z,58.38
2022-10-17T16:26:07.591Z,68.93
2022-10-17T16:31:21.131Z,67.70
2022-10-17T16:36:24.644Z,59.50
2022-10-17T16:41:31.214Z,52.58
2022-10-17T16:46:35.240Z,75.93
2022-10-17T16:51:38.760Z,74.90
2022-10-17T16:56:43.546Z,80.88
2022-10-17T17:01:48.953Z,77.10
2022-10-17T17:06:52.378Z,60.53
2022-10-17T17:11:57.166Z,56.35
2022-10-17T17:17:00.530Z,45.35
2022-10-17T17:22:03.941Z,47.08
2022-10-17T17:27:11.302Z,70.13
2022-10-17T17:32:16.914Z,68.65
2022-10-17T17:37:20.300Z,39.70
2022-10-17T17:42:25.116Z,39.38
2022-10-17T17:47:30.263Z,40.40
2022-10-17T17:52:33.974Z,49.47
2022-10-17T17:57:38.727Z,52.67
2022-10-17T18:02:44.363Z,60.50
2022-10-17T18:07:47.958Z,36.53
2022-10-17T18:13:17.326Z,30.60
2022-10-17T18:18:20.743Z,30.58
2022-10-17T18:23:24.550Z,54.70
2022-10-17T18:28:29.630Z,61.83
2022-10-17T18:33:33.102Z,77.90
2022-10-17T18:38:37.073Z,40.88
2022-10-17T18:43:43.441Z,55.30
2022-10-17T18:48:48.013Z,36.65
2022-10-17T18:53:52.967Z,30.35
2022-10-17T18:58:58.653Z,28.75
2022-10-17T19:04:02.033Z,19.07
2022-10-17T19:09:07.237Z,25.83
2022-10-17T19:14:14.146Z,28.27
2022-10-17T19:19:22.157Z,21.45
2022-10-17T19:24:28.824Z,22.40
2022-10-17T19:29:33.669Z,43.15
2022-10-17T19:34:37.264Z,35.88
2022-10-17T19:39:40.708Z,35.20
2022-10-17T19:52:16.730Z,29.77
2022-10-17T19:57:47.469Z,34.03
2022-10-17T20:02:50.913Z,29.35
2022-10-17T20:07:54.373Z,14.85
2022-10-17T20:13:47.846Z,16.23
2022-10-17T20:18:56.405Z,23.65
2022-10-17T20:24:05.977Z,18.43
2022-10-17T20:29:12.257Z,24.93
2022-10-17T20:34:22.621Z,22.38
2022-10-17T20:39:51.220Z,24.65
2022-10-17T20:45:00.499Z,38.00
2022-10-17T20:50:18.433Z,26.70
2022-10-17T20:55:22.524Z,30.50
2022-10-17T21:00:26.568Z,15.27
2022-10-17T23:01:48.911Z,11.73
2022-10-17T23:06:53.087Z,7.83
2022-10-17T23:11:57.622Z,13.10
2022-10-17T23:17:03.124Z,11.23
2022-10-17T23:22:08.930Z,11.87
2022-10-17T23:27:15.123Z,9.97
2022-10-17T23:32:23.855Z,13.37
2022-10-17T23:37:31.654Z,12.60
2022-10-17T23:42:37.584Z,10.57
2022-10-17T23:47:44.771Z,14.97
